Time;durP1;ratioP1;P1;durP2;ratioP2;P2;SDS_P1;SDS_P2;PMS_P1;PMS_P2;Temp;Humidity;BMP_temperature;BMP_pressure;BME280_temperature;BME280_humidity;BME280_pressure;Samples;Min_cycle;Max_cycle;Signal;HPM_P1;HPM_P2
2024/04/04 00:02:14;;;;;;;2.92;1.15;;;11.60;99.90;;;;;;4977987;28;20448;-94
2024/04/04 00:04:40;;;;;;;3.90;1.80;;;11.60;99.90;;;;;;4982312;28;20485;-94
2024/04/04 00:07:06;;;;;;;2.70;1.60;;;11.70;99.90;;;;;;4980718;28;20030;-93
2024/04/04 00:09:31;;;;;;;5.22;1.67;;;11.60;99.90;;;;;;4982628;28;20031;-93
2024/04/04 00:11:57;;;;;;;3.83;1.75;;;11.60;99.90;;;;;;4967814;28;20023;-94
2024/04/04 00:14:23;;;;;;;4.57;1.60;;;11.60;99.90;;;;;;4972886;28;20034;-93
2024/04/04 00:16:49;;;;;;;3.00;1.67;;;11.60;99.90;;;;;;4982942;28;20019;-94
2024/04/04 00:19:14;;;;;;;3.63;1.58;;;11.50;99.90;;;;;;4966404;28;20085;-93
2024/04/04 00:21:40;;;;;;;5.65;2.25;;;11.60;99.90;;;;;;4980493;28;20050;-94
2024/04/04 00:24:06;;;;;;;3.83;1.63;;;11.50;99.90;;;;;;4982170;28;20050;-95
2024/04/04 00:26:32;;;;;;;4.28;1.67;;;11.40;99.90;;;;;;4982823;28;20084;-94
2024/04/04 00:28:57;;;;;;;2.90;1.90;;;11.40;99.90;;;;;;4983354;28;20031;-94
2024/04/04 00:31:23;;;;;;;4.40;1.65;;;11.40;99.90;;;;;;4983618;28;20034;-93
2024/04/04 00:33:48;;;;;;;3.95;1.15;;;11.40;99.90;;;;;;4981696;28;20561;-93
2024/04/04 00:36:14;;;;;;;3.03;1.98;;;11.40;99.90;;;;;;4974866;28;20031;-93
2024/04/04 00:38:40;;;;;;;3.67;1.20;;;11.40;99.90;;;;;;4980049;28;20024;-95
2024/04/04 00:41:06;;;;;;;2.92;1.35;;;11.40;99.90;;;;;;4982577;28;20389;-95
2024/04/04 00:43:31;;;;;;;2.22;1.83;;;11.30;99.90;;;;;;4978957;28;20023;-93
2024/04/04 00:45:57;;;;;;;3.58;1.55;;;11.30;99.90;;;;;;4964352;28;20046;-93
2024/04/04 00:48:24;;;;;;;4.80;1.00;;;11.30;99.90;;;;;;4962742;28;20142;-94
2024/04/04 00:50:52;;;;;;;3.55;1.42;;;11.30;99.90;;;;;;4968479;28;20037;-94
2024/04/04 00:53:20;;;;;;;3.83;1.35;;;11.20;99.90;;;;;;4982246;28;20023;-94
2024/04/04 00:55:48;;;;;;;4.80;1.70;;;11.20;99.90;;;;;;4981965;28;20069;-94
2024/04/04 00:58:18;;;;;;;2.25;2.05;;;11.20;99.90;;;;;;4965818;28;20042;-94
2024/04/04 01:00:44;;;;;;;3.08;1.23;;;11.30;99.90;;;;;;4962405;29;20058;-94
2024/04/04 01:03:10;;;;;;;3.28;1.55;;;11.30;99.90;;;;;;4962318;28;20083;-94
2024/04/04 01:05:36;;;;;;;3.65;2.20;;;11.30;99.90;;;;;;4966382;28;20539;-94
2024/04/04 01:08:03;;;;;;;4.53;1.33;;;11.30;99.90;;;;;;4982882;28;20037;-94
2024/04/04 01:10:28;;;;;;;2.67;1.33;;;11.30;99.90;;;;;;4982822;28;20063;-93
2024/04/04 01:12:54;;;;;;;3.83;1.67;;;11.30;99.90;;;;;;4981654;28;20031;-93
2024/04/04 01:15:19;;;;;;;2.88;1.63;;;11.20;99.90;;;;;;4981036;28;20063;-94
2024/04/04 01:17:45;;;;;;;2.20;1.27;;;11.20;99.90;;;;;;4980070;28;20399;-93
2024/04/04 01:20:11;;;;;;;4.68;1.73;;;11.30;99.90;;;;;;4981533;28;20029;-93
2024/04/04 01:22:37;;;;;;;3.67;1.83;;;11.30;99.90;;;;;;4979633;28;20031;-93
2024/04/04 01:25:03;;;;;;;2.97;1.30;;;11.30;99.90;;;;;;4981562;28;20433;-94
2024/04/04 01:27:28;;;;;;;2.97;1.90;;;11.40;99.90;;;;;;4963418;28;20023;-94
2024/04/04 01:29:54;;;;;;;5.18;1.30;;;11.40;99.90;;;;;;4976343;28;20400;-94
2024/04/04 01:32:20;;;;;;;4.68;2.25;;;11.40;99.90;;;;;;4962421;29;20031;-94
2024/04/04 01:34:46;;;;;;;3.17;1.73;;;11.40;99.90;;;;;;4964151;28;20032;-93
2024/04/04 01:37:12;;;;;;;6.68;2.63;;;11.40;99.90;;;;;;4972844;28;20038;-93
2024/04/04 01:39:38;;;;;;;3.35;1.75;;;11.40;99.90;;;;;;4979934;28;20027;-93
2024/04/04 01:42:04;;;;;;;4.60;1.42;;;11.40;99.90;;;;;;4970299;28;20027;-94
2024/04/04 01:44:29;;;;;;;2.33;1.23;;;11.40;99.90;;;;;;4981125;28;20034;-93
2024/04/04 01:46:55;;;;;;;2.20;1.10;;;11.40;99.90;;;;;;4982110;28;20025;-93
2024/04/04 01:49:21;;;;;;;5.28;1.55;;;11.40;99.90;;;;;;4981700;28;20035;-94
2024/04/04 01:51:50;;;;;;;3.10;1.83;;;11.40;99.90;;;;;;4980977;28;20034;-93
2024/04/04 01:54:15;;;;;;;3.53;2.03;;;11.40;99.90;;;;;;4971426;28;20114;-93
2024/04/04 01:56:42;;;;;;;3.40;1.63;;;11.50;99.90;;;;;;4980862;28;20027;-93
2024/04/04 01:59:09;;;;;;;3.17;1.33;;;11.60;99.90;;;;;;4981679;28;20025;-92
2024/04/04 02:01:35;;;;;;;4.07;1.25;;;11.60;99.90;;;;;;4983476;28;20039;-92
2024/04/04 02:04:01;;;;;;;5.35;1.45;;;11.70;99.90;;;;;;4984947;28;20023;-93
2024/04/04 02:06:26;;;;;;;2.20;1.48;;;11.70;99.90;;;;;;4985360;28;20080;-93
2024/04/04 02:08:52;;;;;;;5.38;1.55;;;11.70;99.90;;;;;;4985374;28;20026;-92
2024/04/04 02:11:18;;;;;;;1.90;1.10;;;11.70;99.90;;;;;;4984481;28;20116;-91
2024/04/04 02:13:43;;;;;;;4.32;1.50;;;11.70;99.90;;;;;;4985543;28;20023;-94
2024/04/04 02:16:09;;;;;;;1.90;1.30;;;11.70;99.90;;;;;;4985419;28;20034;-93
2024/04/04 02:18:35;;;;;;;2.92;1.38;;;11.70;99.90;;;;;;4984958;28;20047;-94
2024/04/04 02:21:02;;;;;;;2.78;1.60;;;11.80;99.90;;;;;;4979521;28;20027;-93
2024/04/04 02:23:28;;;;;;;1.58;1.42;;;11.80;99.90;;;;;;4982430;28;20565;-93
2024/04/04 02:25:56;;;;;;;4.00;1.63;;;11.90;99.90;;;;;;4979079;28;20062;-94
2024/04/04 02:28:22;;;;;;;2.70;1.08;;;12.00;99.90;;;;;;4971300;28;20023;-93
2024/04/04 02:30:48;;;;;;;6.50;1.98;;;12.10;99.90;;;;;;4980017;28;20415;-94
2024/04/04 02:33:13;;;;;;;1.25;0.73;;;12.30;99.90;;;;;;4984486;28;20034;-93
2024/04/04 02:35:39;;;;;;;3.80;1.10;;;12.30;99.90;;;;;;4986895;28;20027;-92
2024/04/04 02:38:06;;;;;;;1.92;1.15;;;12.30;99.90;;;;;;4985362;28;20027;-94
2024/04/04 02:40:33;;;;;;;5.43;1.08;;;12.30;99.90;;;;;;4981216;28;20024;-93
2024/04/04 02:43:00;;;;;;;2.28;0.93;;;12.40;99.90;;;;;;4964448;28;20118;-93
2024/04/04 02:45:25;;;;;;;2.25;1.88;;;12.50;99.90;;;;;;4967217;28;20024;-93
2024/04/04 02:47:51;;;;;;;3.33;1.05;;;12.40;99.90;;;;;;4984718;28;20050;-94
2024/04/04 02:50:18;;;;;;;1.67;0.95;;;12.40;99.90;;;;;;4984938;28;20027;-93
2024/04/04 02:52:43;;;;;;;3.22;1.15;;;12.40;99.90;;;;;;4985492;28;20430;-93
2024/04/04 02:55:09;;;;;;;3.10;1.05;;;12.50;99.90;;;;;;4985055;28;20026;-94
2024/04/04 02:57:38;;;;;;;1.42;1.13;;;12.60;99.90;;;;;;4985182;28;20023;-93
2024/04/04 03:00:08;;;;;;;3.50;1.42;;;12.50;99.90;;;;;;4984978;28;20105;-92
2024/04/04 03:02:37;;;;;;;1.05;0.90;;;12.50;99.90;;;;;;4985825;28;20046;-93
2024/04/04 03:05:06;;;;;;;3.08;1.67;;;12.50;99.90;;;;;;4984659;28;20038;-95
2024/04/04 03:07:32;;;;;;;1.23;1.02;;;12.50;99.90;;;;;;4984162;28;20027;-94
2024/04/04 03:10:05;;;;;;;1.38;0.77;;;12.50;99.90;;;;;;4984835;28;20022;-93
2024/04/04 03:12:30;;;;;;;2.53;1.20;;;12.40;99.90;;;;;;4984555;28;20034;-94
2024/04/04 03:14:59;;;;;;;3.05;1.23;;;12.30;99.90;;;;;;4984880;28;20452;-92
2024/04/04 03:17:27;;;;;;;3.63;1.40;;;12.30;99.90;;;;;;4983456;28;20575;-93
2024/04/04 03:19:52;;;;;;;2.72;1.00;;;12.20;99.90;;;;;;4984860;28;20015;-95
2024/04/04 03:22:21;;;;;;;2.05;1.05;;;12.20;99.90;;;;;;4984932;28;20027;-93
2024/04/04 03:24:47;;;;;;;2.65;1.33;;;12.20;99.90;;;;;;4985459;28;20030;-94
2024/04/04 03:27:15;;;;;;;3.05;0.93;;;12.10;99.90;;;;;;4985063;28;20085;-93
2024/04/04 03:29:41;;;;;;;1.33;0.80;;;12.10;99.90;;;;;;4984909;28;20031;-94
2024/04/04 03:32:06;;;;;;;1.48;0.90;;;12.10;99.90;;;;;;4984292;28;20034;-94
2024/04/04 03:34:32;;;;;;;2.20;1.05;;;12.10;99.90;;;;;;4984071;28;20042;-94
2024/04/04 03:37:02;;;;;;;1.23;0.90;;;12.00;99.90;;;;;;4984491;28;20031;-94
2024/04/04 03:39:29;;;;;;;3.35;2.63;;;12.10;99.90;;;;;;4985246;28;20030;-93
2024/04/04 03:41:55;;;;;;;1.83;1.00;;;12.10;99.90;;;;;;4985087;28;20050;-94
2024/04/04 03:44:21;;;;;;;1.52;0.93;;;12.10;99.90;;;;;;4985121;28;20046;-93
2024/04/04 03:46:49;;;;;;;2.05;0.80;;;12.10;99.90;;;;;;4984550;28;20366;-93
2024/04/04 03:49:24;;;;;;;2.38;1.55;;;12.20;99.90;;;;;;4983666;28;20027;-95
2024/04/04 03:55:36;;;;;;;3.20;1.48;;;12.20;99.90;;;;;;4966470;28;20063;-93
2024/04/04 03:58:12;;;;;;;2.65;1.30;;;12.30;99.90;;;;;;4966201;28;20027;-94
2024/04/04 04:00:42;;;;;;;2.75;1.00;;;12.30;99.90;;;;;;4964967;29;20035;-94
2024/04/04 04:03:08;;;;;;;3.15;0.93;;;12.30;99.90;;;;;;4966719;28;20489;-95
2024/04/04 04:05:43;;;;;;;2.75;1.02;;;12.40;99.90;;;;;;4966121;28;20027;-95
2024/04/04 04:08:11;;;;;;;1.92;0.88;;;12.40;99.90;;;;;;4964612;29;20035;-95
2024/04/04 04:10:40;;;;;;;3.85;0.88;;;12.40;99.90;;;;;;4976343;28;20034;-94
2024/04/04 04:13:08;;;;;;;1.63;1.23;;;12.40;99.90;;;;;;4984160;28;20027;-92
2024/04/04 04:15:37;;;;;;;3.67;1.02;;;12.40;99.90;;;;;;4981783;28;20031;-94
2024/04/04 04:18:07;;;;;;;3.22;1.02;;;12.50;99.90;;;;;;4983450;28;20038;-93
2024/04/04 04:23:22;;;;;;;1.80;1.30;;;12.60;99.90;;;;;;4964803;28;20082;-93
2024/04/04 04:25:54;;;;;;;2.50;0.68;;;12.60;99.90;;;;;;4963800;28;20035;-95
2024/04/04 04:28:20;;;;;;;2.75;0.80;;;12.60;99.90;;;;;;4968953;28;20075;-94
2024/04/04 04:30:45;;;;;;;2.38;1.67;;;12.60;99.90;;;;;;4961981;29;20031;-93
2024/04/04 04:33:11;;;;;;;2.33;0.80;;;12.60;99.90;;;;;;4964488;28;20112;-92
2024/04/04 04:35:37;;;;;;;4.32;1.38;;;12.70;99.90;;;;;;4973544;28;20054;-92
2024/04/04 04:38:03;;;;;;;4.05;1.25;;;12.70;99.90;;;;;;4983142;28;20030;-92
2024/04/04 04:40:29;;;;;;;2.75;0.95;;;12.70;99.90;;;;;;4978000;28;20073;-94
2024/04/04 04:42:54;;;;;;;1.50;1.40;;;12.60;99.90;;;;;;4962672;28;20441;-93
2024/04/04 04:45:20;;;;;;;1.10;0.90;;;12.70;99.90;;;;;;4970681;28;20113;-94
2024/04/04 04:47:46;;;;;;;1.90;0.98;;;12.70;99.90;;;;;;4977466;28;20106;-93
2024/04/04 04:50:12;;;;;;;4.05;2.13;;;12.70;99.90;;;;;;4975023;28;20020;-93
2024/04/04 04:52:37;;;;;;;2.53;1.35;;;12.70;99.90;;;;;;4976957;28;20059;-93
2024/04/04 04:55:05;;;;;;;2.38;0.75;;;12.70;99.90;;;;;;4968696;28;20102;-92
2024/04/04 04:57:31;;;;;;;1.83;0.93;;;12.70;99.90;;;;;;4971954;28;20505;-94
2024/04/04 04:59:58;;;;;;;3.60;1.45;;;12.70;99.90;;;;;;4966790;28;20055;-92
2024/04/04 05:02:23;;;;;;;2.33;1.00;;;12.70;99.90;;;;;;4969249;28;20050;-93
2024/04/04 05:04:49;;;;;;;3.08;0.80;;;12.70;99.90;;;;;;4967469;28;20042;-95
2024/04/04 05:07:15;;;;;;;4.80;1.35;;;12.70;99.90;;;;;;4979900;28;20031;-93
2024/04/04 05:09:40;;;;;;;1.88;1.40;;;12.60;99.90;;;;;;4971105;28;20069;-93
2024/04/04 05:12:06;;;;;;;3.30;1.27;;;12.70;99.90;;;;;;4973855;28;20038;-92
2024/04/04 05:14:32;;;;;;;4.63;1.35;;;12.70;99.90;;;;;;4967957;28;20039;-93
2024/04/04 05:16:58;;;;;;;4.10;2.25;;;12.60;99.90;;;;;;4969823;28;20434;-93
2024/04/04 05:19:23;;;;;;;3.65;1.05;;;12.60;99.90;;;;;;4961733;28;20051;-93
2024/04/04 05:21:50;;;;;;;2.38;1.00;;;12.60;99.90;;;;;;4967919;28;20038;-91
2024/04/04 05:24:16;;;;;;;3.08;1.42;;;12.50;99.90;;;;;;4976259;28;20031;-92
2024/04/04 05:26:42;;;;;;;5.03;1.20;;;12.60;99.90;;;;;;4981791;28;20077;-92
2024/04/04 05:29:08;;;;;;;3.65;1.08;;;12.60;99.90;;;;;;4966038;28;20022;-92
2024/04/04 05:31:33;;;;;;;2.45;1.42;;;12.60;99.90;;;;;;4978653;28;20026;-92
2024/04/04 05:34:00;;;;;;;3.50;0.93;;;12.50;99.90;;;;;;4973346;28;20047;-92
2024/04/04 05:36:26;;;;;;;4.32;0.90;;;12.60;99.90;;;;;;4977691;28;20121;-92
2024/04/04 05:38:52;;;;;;;3.90;1.63;;;12.60;99.90;;;;;;4974288;28;20061;-90
2024/04/04 05:41:18;;;;;;;5.35;2.17;;;12.60;99.90;;;;;;4967164;28;20037;-91
2024/04/04 05:43:46;;;;;;;3.05;1.08;;;12.70;99.90;;;;;;4975615;28;20047;-92
2024/04/04 05:46:12;;;;;;;5.55;1.85;;;12.70;99.90;;;;;;4962126;28;20015;-92
2024/04/04 05:48:37;;;;;;;4.45;1.15;;;12.80;99.60;;;;;;4976214;28;20162;-93
2024/04/04 05:51:04;;;;;;;7.43;1.23;;;12.80;99.60;;;;;;4964186;28;20055;-91
2024/04/04 05:53:31;;;;;;;3.33;0.90;;;12.80;98.20;;;;;;4977010;28;20023;-92
2024/04/04 05:55:57;;;;;;;4.20;2.00;;;12.90;98.40;;;;;;4959716;28;20035;-92
2024/04/04 05:58:23;;;;;;;2.35;1.23;;;12.90;97.50;;;;;;4962610;28;20081;-91
2024/04/04 06:00:51;;;;;;;7.43;1.67;;;13.00;97.50;;;;;;4957585;28;20031;-94
2024/04/04 06:03:17;;;;;;;4.90;1.55;;;13.00;97.00;;;;;;4948869;28;20031;-92
2024/04/04 06:05:43;;;;;;;3.97;1.73;;;13.00;96.30;;;;;;4925669;28;20111;-91
2024/04/04 06:08:09;;;;;;;3.65;1.40;;;13.00;96.40;;;;;;4912739;28;20162;-92
2024/04/04 06:10:35;;;;;;;8.57;3.25;;;13.10;96.40;;;;;;4938404;28;20444;-92
2024/04/04 06:13:01;;;;;;;10.80;2.97;;;13.10;96.00;;;;;;4952486;28;20133;-92
2024/04/04 06:15:27;;;;;;;4.82;2.35;;;13.20;95.30;;;;;;4937365;28;20039;-92
2024/04/04 06:17:53;;;;;;;6.35;1.92;;;13.30;96.30;;;;;;4921911;28;20062;-92
2024/04/04 06:20:19;;;;;;;4.05;1.27;;;13.30;95.10;;;;;;4939350;28;20034;-92
2024/04/04 06:22:44;;;;;;;4.88;1.67;;;13.30;95.70;;;;;;4941952;28;20031;-92
2024/04/04 06:25:10;;;;;;;5.18;1.42;;;13.30;95.10;;;;;;4958926;28;20031;-92
2024/04/04 06:27:38;;;;;;;4.82;1.58;;;13.30;95.20;;;;;;4942725;28;20122;-90
2024/04/04 06:30:05;;;;;;;5.13;1.27;;;13.20;99.90;;;;;;4939312;28;20118;-91
2024/04/04 06:32:30;;;;;;;4.53;1.40;;;13.00;99.90;;;;;;4941807;28;20031;-92
2024/04/04 06:34:56;;;;;;;8.73;1.42;;;13.00;99.90;;;;;;4929766;28;20531;-91
2024/04/04 06:37:22;;;;;;;5.80;1.73;;;12.90;99.90;;;;;;4948402;28;20038;-90
2024/04/04 06:39:47;;;;;;;5.25;2.30;;;12.90;99.90;;;;;;4956739;28;20019;-89
2024/04/04 06:42:13;;;;;;;6.88;2.22;;;12.90;99.90;;;;;;4945264;28;20030;-90
2024/04/04 06:44:39;;;;;;;7.00;3.42;;;12.90;99.90;;;;;;4942822;28;20034;-92
2024/04/04 06:47:05;;;;;;;5.68;1.35;;;12.80;99.90;;;;;;4933489;28;20083;-92
2024/04/04 06:49:31;;;;;;;8.68;1.83;;;12.90;99.90;;;;;;4936016;28;20054;-92
2024/04/04 06:51:56;;;;;;;6.07;1.23;;;12.80;99.90;;;;;;4959243;28;21433;-92
2024/04/04 06:54:22;;;;;;;6.50;1.65;;;12.90;99.90;;;;;;4941111;28;20035;-92
2024/04/04 06:56:48;;;;;;;2.85;2.20;;;13.00;99.90;;;;;;4942646;28;20105;-92
2024/04/04 06:59:13;;;;;;;6.75;2.25;;;13.00;99.90;;;;;;4936967;28;20489;-91
2024/04/04 07:01:39;;;;;;;7.97;1.80;;;13.00;99.90;;;;;;4939476;28;20439;-90
2024/04/04 07:04:07;;;;;;;6.32;1.70;;;12.90;99.90;;;;;;4963714;28;20044;-92
2024/04/04 07:06:41;;;;;;;6.22;1.40;;;13.00;99.90;;;;;;4946561;28;20037;-92
2024/04/04 07:09:06;;;;;;;;;;;13.00;99.90;;;;;;4945140;28;20042;-91
2024/04/04 07:11:32;;;;;;;5.22;1.55;;;13.00;99.90;;;;;;4931476;28;19910;-91
2024/04/04 07:13:58;;;;;;;3.80;1.50;;;13.10;99.90;;;;;;4944561;28;20023;-91
2024/04/04 07:16:29;;;;;;;7.38;1.50;;;13.10;99.20;;;;;;4944383;28;20038;-91
2024/04/04 07:18:58;;;;;;;6.68;1.38;;;13.20;99.60;;;;;;4965575;28;22565;-92
2024/04/04 07:21:24;;;;;;;7.10;1.35;;;13.30;99.60;;;;;;4950191;28;20046;-92
2024/04/04 07:23:50;;;;;;;9.43;2.80;;;13.30;99.90;;;;;;4931260;28;20137;-91
2024/04/04 07:26:16;;;;;;;7.68;2.17;;;13.30;99.90;;;;;;4913094;28;20717;-91
2024/04/04 07:28:45;;;;;;;7.18;1.70;;;13.30;98.80;;;;;;4905243;28;20142;-93
2024/04/04 07:31:11;;;;;;;5.88;1.45;;;13.30;98.50;;;;;;4960639;28;20449;-91
2024/04/04 07:33:37;;;;;;;5.40;1.83;;;13.40;97.60;;;;;;4909579;28;20125;-92
2024/04/04 07:36:03;;;;;;;9.15;2.05;;;13.50;97.50;;;;;;4923607;28;20073;-94
2024/04/04 07:38:28;;;;;;;9.10;2.08;;;13.60;98.60;;;;;;4916026;28;20504;-92
2024/04/04 07:40:54;;;;;;;7.45;1.75;;;13.60;96.30;;;;;;4916424;28;20293;-92
2024/04/04 07:43:20;;;;;;;3.70;1.13;;;13.80;94.10;;;;;;4936368;28;20027;-92
2024/04/04 07:45:46;;;;;;;4.68;2.08;;;13.90;95.40;;;;;;4931591;28;20041;-91
2024/04/04 07:48:14;;;;;;;9.57;2.38;;;13.90;96.50;;;;;;4923108;28;20406;-91
2024/04/04 07:50:43;;;;;;;7.82;1.90;;;14.00;94.40;;;;;;4932862;28;20035;-92
2024/04/04 07:53:09;;;;;;;6.68;1.25;;;14.00;92.70;;;;;;4916803;28;20033;-92
2024/04/04 07:55:35;;;;;;;6.68;2.22;;;14.10;93.50;;;;;;4913409;28;20729;-90
2024/04/04 07:58:01;;;;;;;8.73;1.33;;;14.10;92.40;;;;;;4955701;28;20035;-94
2024/04/04 08:00:27;;;;;;;8.05;1.33;;;14.10;93.90;;;;;;4917643;28;20055;-92
2024/04/04 08:02:53;;;;;;;5.90;1.73;;;14.10;95.10;;;;;;4916300;28;20062;-92
2024/04/04 08:05:20;;;;;;;3.83;1.98;;;14.00;94.70;;;;;;4909031;28;20154;-92
2024/04/04 08:07:46;;;;;;;5.80;1.52;;;14.00;93.80;;;;;;4951105;28;20063;-92
2024/04/04 08:10:15;;;;;;;4.82;1.42;;;13.90;94.70;;;;;;4953555;28;20037;-92
2024/04/04 08:12:43;;;;;;;4.30;1.58;;;13.90;96.60;;;;;;4948535;28;20057;-91
2024/04/04 08:15:15;;;;;;;4.10;1.85;;;13.70;98.60;;;;;;4964670;28;20036;-91
2024/04/04 08:17:46;;;;;;;6.18;2.13;;;13.60;99.90;;;;;;4950717;28;20030;-91
2024/04/04 08:20:16;;;;;;;6.80;1.88;;;13.50;99.90;;;;;;4950675;28;20109;-91
2024/04/04 08:22:43;;;;;;;5.57;2.13;;;13.50;99.90;;;;;;4943236;28;20059;-91
2024/04/04 08:25:09;;;;;;;4.57;1.60;;;13.40;99.90;;;;;;4940623;28;20032;-93
2024/04/04 08:27:35;;;;;;;3.53;1.70;;;13.30;99.90;;;;;;4954671;28;20082;-91
2024/04/04 08:30:01;;;;;;;6.43;1.85;;;13.30;99.90;;;;;;4962225;28;20035;-91
2024/04/04 08:32:26;;;;;;;5.35;1.42;;;13.20;99.90;;;;;;4954332;28;20039;-92
2024/04/04 08:34:52;;;;;;;8.43;1.70;;;13.20;99.90;;;;;;4931363;28;20141;-91
2024/04/04 08:37:18;;;;;;;5.82;1.90;;;13.20;99.90;;;;;;4944946;28;20043;-88
2024/04/04 08:39:49;;;;;;;6.15;2.20;;;13.20;99.90;;;;;;4947489;28;20106;-92
2024/04/04 08:42:16;;;;;;;8.93;1.77;;;13.20;99.90;;;;;;4962046;28;20027;-90
2024/04/04 08:44:44;;;;;;;9.68;2.47;;;13.20;99.90;;;;;;4939599;28;20031;-91
2024/04/04 08:47:10;;;;;;;6.95;2.45;;;13.20;99.90;;;;;;4938656;28;20027;-92
2024/04/04 08:49:38;;;;;;;9.55;2.72;;;13.20;99.90;;;;;;4928726;28;20034;-91
2024/04/04 08:52:04;;;;;;;5.88;1.98;;;13.20;99.90;;;;;;4935408;28;20484;-90
2024/04/04 08:54:30;;;;;;;9.25;2.85;;;13.20;99.90;;;;;;4954275;28;20026;-93
2024/04/04 08:56:55;;;;;;;4.00;1.88;;;13.10;99.90;;;;;;4932502;28;20027;-91
2024/04/04 08:59:21;;;;;;;7.20;2.30;;;13.00;99.90;;;;;;4948744;28;20410;-91
2024/04/04 09:01:47;;;;;;;5.30;2.00;;;13.10;99.90;;;;;;4958799;28;20035;-92
2024/04/04 09:04:31;;;;;;;8.30;2.30;;;13.10;99.90;;;;;;4953171;28;20031;-91
2024/04/04 09:06:57;;;;;;;6.00;1.88;;;13.10;99.90;;;;;;4951803;28;20777;-91
2024/04/04 09:09:24;;;;;;;11.13;2.38;;;13.10;99.90;;;;;;4960217;28;20035;-92
2024/04/04 09:11:50;;;;;;;6.55;2.15;;;13.20;99.90;;;;;;4939067;28;20027;-93
2024/04/04 09:14:16;;;;;;;8.73;2.53;;;13.20;99.90;;;;;;4957053;28;20035;-92
2024/04/04 09:16:43;;;;;;;7.82;1.48;;;13.20;99.90;;;;;;4952227;28;20031;-91
2024/04/04 09:19:13;;;;;;;3.47;2.55;;;13.10;99.90;;;;;;4956757;28;20083;-90
2024/04/04 09:21:45;;;;;;;4.68;1.40;;;13.10;99.90;;;;;;4960493;28;20066;-90
2024/04/04 09:24:13;;;;;;;8.45;2.10;;;13.10;99.90;;;;;;4964848;28;20019;-90
2024/04/04 09:26:40;;;;;;;5.68;2.10;;;13.10;99.90;;;;;;4967582;28;20041;-89
2024/04/04 09:29:07;;;;;;;8.82;2.17;;;13.00;99.90;;;;;;4978419;28;20031;-92
2024/04/04 09:31:36;;;;;;;8.32;1.33;;;12.90;99.90;;;;;;4971158;28;20442;-90
2024/04/04 09:34:03;;;;;;;8.23;2.50;;;13.00;99.90;;;;;;4969375;28;20046;-90
2024/04/04 09:36:30;;;;;;;4.75;1.80;;;12.90;99.90;;;;;;4958934;28;20023;-91
2024/04/04 09:39:00;;;;;;;4.63;2.28;;;12.90;99.90;;;;;;4966354;28;20049;-91
2024/04/04 09:41:31;;;;;;;6.65;2.58;;;12.90;99.90;;;;;;4961694;28;20055;-90
2024/04/04 09:43:57;;;;;;;4.78;1.60;;;12.90;99.90;;;;;;4964944;28;20027;-90
2024/04/04 09:46:25;;;;;;;7.10;2.90;;;12.80;99.90;;;;;;4966368;28;20027;-93
2024/04/04 09:48:52;;;;;;;;;;;12.80;99.90;;;;;;4971396;28;20038;-92
2024/04/04 09:51:19;;;;;;;12.10;2.00;;;12.90;99.90;;;;;;4975729;28;20432;-91
2024/04/04 09:53:45;;;;;;;6.32;1.85;;;12.90;99.90;;;;;;4970192;28;20023;-91
2024/04/04 09:56:13;;;;;;;4.35;2.35;;;12.90;99.90;;;;;;4976570;28;20441;-91
2024/04/04 09:58:41;;;;;;;5.18;1.60;;;12.90;99.90;;;;;;4970671;28;20085;-91
2024/04/04 10:01:21;;;;;;;8.43;2.80;;;13.00;99.90;;;;;;4969937;28;20037;-94
2024/04/04 10:03:53;;;;;;;4.55;1.48;;;12.90;99.90;;;;;;4964799;28;20035;-89
2024/04/04 10:06:33;;;;;;;7.55;1.25;;;13.00;99.90;;;;;;4968125;28;20031;-92
2024/04/04 10:08:59;;;;;;;9.48;2.38;;;13.00;99.90;;;;;;4974780;28;20287;-91
2024/04/04 10:11:30;;;;;;;6.78;1.63;;;13.00;99.90;;;;;;4977656;28;20041;-94
2024/04/04 10:14:02;;;;;;;5.35;1.73;;;12.90;99.90;;;;;;4965870;28;20573;-92
2024/04/04 10:16:32;;;;;;;7.50;2.53;;;12.90;99.90;;;;;;4959345;28;20034;-93
2024/04/04 10:19:03;;;;;;;5.80;2.10;;;13.00;99.90;;;;;;4968938;28;20047;-94
2024/04/04 10:21:29;;;;;;;8.75;2.88;;;13.00;99.90;;;;;;4965292;28;20095;-94
2024/04/04 10:24:03;;;;;;;10.38;3.55;;;13.00;99.90;;;;;;4974432;28;20039;-95
2024/04/04 10:26:28;;;;;;;5.57;1.98;;;13.00;99.90;;;;;;4975898;28;20031;-95
2024/04/04 10:28:55;;;;;;;8.25;1.40;;;13.10;99.90;;;;;;4970643;28;20107;-94
2024/04/04 10:31:21;;;;;;;6.43;2.03;;;13.00;99.90;;;;;;4969812;28;20505;-94
2024/04/04 10:33:46;;;;;;;8.13;1.80;;;13.10;99.90;;;;;;4979759;28;20042;-94
2024/04/04 10:36:12;;;;;;;8.98;2.63;;;13.10;99.90;;;;;;4970950;28;20030;-94
2024/04/04 10:38:38;;;;;;;5.05;1.70;;;13.10;99.90;;;;;;4966150;28;20034;-94
2024/04/04 10:41:04;;;;;;;4.68;1.77;;;13.10;99.90;;;;;;4984797;28;20030;-94
2024/04/04 10:43:39;;;;;;;4.72;2.67;;;13.10;99.90;;;;;;4978359;28;20023;-94
2024/04/04 10:46:05;;;;;;;4.90;1.70;;;13.20;99.90;;;;;;4983307;28;20029;-95
2024/04/04 10:48:30;;;;;;;4.80;3.20;;;13.20;99.90;;;;;;4993810;28;20031;-95
2024/04/04 10:50:56;;;;;;;8.88;2.63;;;13.20;99.90;;;;;;4986447;28;20047;-95
2024/04/04 10:53:22;;;;;;;7.38;2.20;;;13.20;99.90;;;;;;4977680;28;20019;-96
2024/04/04 10:55:48;;;;;;;5.38;1.70;;;13.20;99.90;;;;;;4995408;28;20070;-95
2024/04/04 10:58:14;;;;;;;4.53;2.33;;;13.10;99.90;;;;;;4989451;28;20015;-95
2024/04/04 11:00:40;;;;;;;6.00;1.88;;;13.10;99.90;;;;;;4973495;28;20057;-94
2024/04/04 11:03:09;;;;;;;8.32;2.10;;;13.10;99.90;;;;;;4987895;28;20031;-94
2024/04/04 11:05:35;;;;;;;6.35;1.77;;;13.10;99.90;;;;;;4988141;28;20026;-92
2024/04/04 11:08:05;;;;;;;7.88;2.47;;;13.10;99.90;;;;;;4987534;28;20488;-93
2024/04/04 11:10:31;;;;;;;8.18;2.33;;;13.20;99.90;;;;;;4984102;28;20026;-91
2024/04/04 11:12:57;;;;;;;8.98;2.70;;;13.20;99.90;;;;;;4983095;28;20037;-93
2024/04/04 11:15:23;;;;;;;6.15;2.03;;;13.30;99.90;;;;;;4981198;28;20023;-92
2024/04/04 11:17:51;;;;;;;6.88;2.80;;;13.40;99.90;;;;;;4981872;28;20170;-92
2024/04/04 11:20:17;;;;;;;3.63;1.38;;;13.40;99.90;;;;;;4962343;28;20030;-92
2024/04/04 11:22:43;;;;;;;8.23;1.77;;;13.50;99.90;;;;;;4960987;28;20027;-92
2024/04/04 11:25:10;;;;;;;8.52;2.60;;;13.60;99.90;;;;;;4960658;28;20525;-91
2024/04/04 11:27:38;;;;;;;6.72;1.63;;;13.60;99.90;;;;;;4961966;28;20046;-91
2024/04/04 11:30:04;;;;;;;4.85;2.65;;;13.60;99.90;;;;;;4976754;28;20030;-92
2024/04/04 11:32:30;;;;;;;7.10;2.65;;;13.60;99.90;;;;;;4971079;28;20054;-89
2024/04/04 11:34:57;;;;;;;6.93;1.30;;;13.70;99.90;;;;;;4961416;28;20028;-91
2024/04/04 11:37:25;;;;;;;4.70;1.60;;;13.70;99.90;;;;;;4962819;28;20123;-93
2024/04/04 11:39:52;;;;;;;5.05;2.17;;;13.60;99.90;;;;;;4961040;28;20027;-92
2024/04/04 11:42:18;;;;;;;4.30;1.33;;;13.60;99.90;;;;;;4960092;28;20030;-94
2024/04/04 11:44:43;;;;;;;6.10;1.67;;;13.60;99.90;;;;;;4964597;28;20050;-92
2024/04/04 11:47:10;;;;;;;3.85;1.60;;;13.60;99.90;;;;;;4981163;28;20026;-92
2024/04/04 11:49:36;;;;;;;3.58;1.27;;;13.60;99.90;;;;;;4982282;28;20023;-92
2024/04/04 11:52:02;;;;;;;6.38;1.55;;;13.50;99.90;;;;;;4982098;28;20046;-94
2024/04/04 11:54:28;;;;;;;3.75;1.20;;;13.50;99.90;;;;;;4971283;28;20038;-92
2024/04/04 11:56:53;;;;;;;3.03;1.05;;;13.50;99.90;;;;;;4961657;28;20027;-91
2024/04/04 11:59:19;;;;;;;11.30;1.42;;;13.40;99.90;;;;;;4969325;28;20070;-93
2024/04/04 12:01:45;;;;;;;4.40;1.42;;;13.30;99.90;;;;;;4980079;28;20094;-91
2024/04/04 12:04:11;;;;;;;4.22;1.45;;;13.30;99.90;;;;;;4978982;28;20018;-91
2024/04/04 12:06:36;;;;;;;4.53;1.13;;;13.20;99.90;;;;;;4980330;28;20033;-91
2024/04/04 12:09:07;;;;;;;4.05;1.13;;;13.10;99.90;;;;;;4979242;28;20489;-91
2024/04/04 12:11:32;;;;;;;2.38;1.30;;;13.10;99.90;;;;;;4979510;28;20031;-92
2024/04/04 12:13:59;;;;;;;1.88;1.20;;;13.10;99.90;;;;;;4964207;28;20031;-93
2024/04/04 12:16:26;;;;;;;3.33;0.88;;;13.10;99.90;;;;;;4977830;28;20428;-89
2024/04/04 12:21:35;;;;;;;2.47;1.77;;;13.10;99.90;;;;;;4971451;28;20067;-93
2024/04/04 12:24:02;;;;;;;2.08;1.13;;;13.10;99.90;;;;;;4972566;28;20028;-90
2024/04/04 12:26:29;;;;;;;5.30;1.73;;;13.10;99.90;;;;;;4959517;28;20039;-92
2024/04/04 12:28:54;;;;;;;2.28;1.65;;;13.10;99.90;;;;;;4979878;28;20023;-89
2024/04/04 12:31:20;;;;;;;4.10;0.82;;;13.10;99.90;;;;;;4978543;28;20106;-91
2024/04/04 12:33:46;;;;;;;2.72;0.63;;;13.10;99.90;;;;;;4959410;28;20444;-92
2024/04/04 12:36:12;;;;;;;7.57;1.20;;;13.10;99.90;;;;;;4969009;28;20077;-90
2024/04/04 12:38:38;;;;;;;2.45;0.57;;;13.20;99.90;;;;;;4973003;28;20405;-91
2024/04/04 12:41:03;;;;;;;2.35;1.50;;;13.30;99.90;;;;;;4978820;28;20011;-93
2024/04/04 12:43:29;;;;;;;2.85;1.08;;;13.30;99.90;;;;;;4976201;28;20042;-92
2024/04/04 12:46:01;;;;;;;3.47;1.23;;;13.40;99.90;;;;;;4968584;28;20037;-89
2024/04/04 12:48:27;;;;;;;3.83;1.10;;;13.40;99.90;;;;;;4959712;28;20026;-92
2024/04/04 12:50:53;;;;;;;4.97;1.10;;;13.50;99.90;;;;;;4972556;28;20053;-91
2024/04/04 12:53:18;;;;;;;3.05;1.27;;;13.60;98.70;;;;;;4970572;28;20034;-91
2024/04/04 12:55:44;;;;;;;2.72;1.67;;;13.70;99.90;;;;;;4974886;28;20027;-92